Hauptseite
METAR-TAF:

METAR-TAF

Flughäfen :

Heeresflugplatz Niederstetten

Niederstetten, Deutschland

Breite: 49-24N, Länge: 009-58E, Höhe: 468 m

Beobachtung

Neuester Wetterbericht von vor 42 Minuten, um 10:20 UTC
Wind 4 kt aus Nord/Nordwest
Temperatur 14°C
Luftfeuchtigkeit 72%
Luftdruck 1024 hPa
Sichtweite 10 km oder mehr
Leicht bewölkt in der Höhe von 2000 ft
Durchbrochene Bewölkung in der Höhe von 24000 ft

METAR: ETHN 281020Z 34004KT 9999 FEW020 BKN240 14/09 Q1024 BLU+BLU+

Zeit: 13:02 (11:02 UTC)

Prognose

Neuester Wetterbericht von vor 59 Minuten, um 10:03 UTC
Gültige Prognose vom 28 um 11 UTC bis 28 um 20 UTC
Wind 5 kt aus Nord/Nordwest
Sichtweite 10 km oder mehr
Aufgelockert bewölkt in der Höhe von 1200 ft
Durchbrochene Bewölkung in der Höhe von 33000 ft

TAF: ETHN 281003Z 2811/2820 33005KT 9999 NSW SCT012 BKN330

Wetterbeobachtungen und Prognosen von mehr als 4000 Flughäfen (METAR und TAF Bericht).

Die verfügbaren Stationen werden durch gelbe und rote Markierungen auf der Karte dargestellt.

Führen Sie die Maus auf sie, um den Namen der Station zu sehen.

Darauf klicken, um die Beobachtung von Wetterbeobachtungen und Prognosen zu sehen.

Um die Karte zu ändern : klicken Sie auf den grünen Tasten mit einem schwarzen Kreuz Zum Vergrößern, auf den grünen Button mit einem Gedankenstrich zu verkleinern, oder auf die grünen Pfeile für benachbarte Karten.


METAR-TAF: